sensor_id;sensor_type;location;lat;lon;timestamp;temperature;humidity
23562;DHT22;11959;49.418;8.728;2023-10-08T00:01:20;15.80;99.90
23562;DHT22;11959;49.418;8.728;2023-10-08T00:03:47;15.80;99.90
23562;DHT22;11959;49.418;8.728;2023-10-08T00:06:20;15.90;99.90
23562;DHT22;11959;49.418;8.728;2023-10-08T00:08:47;16.00;99.90
23562;DHT22;11959;49.418;8.728;2023-10-08T00:11:13;16.00;99.90
23562;DHT22;11959;49.418;8.728;2023-10-08T00:13:42;16.10;99.90
23562;DHT22;11959;49.418;8.728;2023-10-08T00:16:13;16.10;99.90
23562;DHT22;11959;49.418;8.728;2023-10-08T00:18:42;16.20;99.90
23562;DHT22;11959;49.418;8.728;2023-10-08T00:21:15;16.20;99.90
23562;DHT22;11959;49.418;8.728;2023-10-08T00:23:40;16.30;99.90
23562;DHT22;11959;49.418;8.728;2023-10-08T00:26:15;16.30;99.90
23562;DHT22;11959;49.418;8.728;2023-10-08T00:28:44;16.40;99.90
23562;DHT22;11959;49.418;8.728;2023-10-08T00:31:14;16.40;99.90
23562;DHT22;11959;49.418;8.728;2023-10-08T00:33:43;16.40;99.90
23562;DHT22;11959;49.418;8.728;2023-10-08T00:36:10;16.40;99.90
23562;DHT22;11959;49.418;8.728;2023-10-08T00:38:49;16.40;99.90
23562;DHT22;11959;49.418;8.728;2023-10-08T00:41:24;16.40;99.90
23562;DHT22;11959;49.418;8.728;2023-10-08T00:43:54;16.40;99.90
23562;DHT22;11959;49.418;8.728;2023-10-08T00:46:22;16.40;99.90
23562;DHT22;11959;49.418;8.728;2023-10-08T00:48:52;16.40;99.90
23562;DHT22;11959;49.418;8.728;2023-10-08T00:51:22;16.40;99.90
23562;DHT22;11959;49.418;8.728;2023-10-08T00:53:54;16.30;99.90
23562;DHT22;11959;49.418;8.728;2023-10-08T00:56:28;16.30;99.90
23562;DHT22;11959;49.418;8.728;2023-10-08T00:59:11;16.20;99.90
23562;DHT22;11959;49.418;8.728;2023-10-08T01:01:45;16.30;99.90
23562;DHT22;11959;49.418;8.728;2023-10-08T01:04:25;16.40;99.90
23562;DHT22;11959;49.418;8.728;2023-10-08T01:06:59;16.40;99.90
23562;DHT22;11959;49.418;8.728;2023-10-08T01:09:30;16.70;99.90
23562;DHT22;11959;49.418;8.728;2023-10-08T01:12:19;16.70;99.90
23562;DHT22;11959;49.418;8.728;2023-10-08T01:14:52;16.70;99.90
23562;DHT22;11959;49.418;8.728;2023-10-08T01:17:20;16.80;99.90
23562;DHT22;11959;49.418;8.728;2023-10-08T01:19:50;16.80;99.90
23562;DHT22;11959;49.418;8.728;2023-10-08T01:22:20;16.80;99.90
23562;DHT22;11959;49.418;8.728;2023-10-08T01:24:48;16.80;99.90
23562;DHT22;11959;49.418;8.728;2023-10-08T01:27:20;16.90;99.90
23562;DHT22;11959;49.418;8.728;2023-10-08T01:29:47;16.80;99.90
23562;DHT22;11959;49.418;8.728;2023-10-08T01:32:16;16.80;99.90
23562;DHT22;11959;49.418;8.728;2023-10-08T01:34:43;16.70;99.90
23562;DHT22;11959;49.418;8.728;2023-10-08T01:37:13;16.60;99.90
23562;DHT22;11959;49.418;8.728;2023-10-08T01:39:38;16.50;99.90
23562;DHT22;11959;49.418;8.728;2023-10-08T01:42:08;16.50;99.90
23562;DHT22;11959;49.418;8.728;2023-10-08T01:44:44;16.50;99.90
23562;DHT22;11959;49.418;8.728;2023-10-08T01:47:13;16.50;99.90
23562;DHT22;11959;49.418;8.728;2023-10-08T01:49:39;16.40;99.90
23562;DHT22;11959;49.418;8.728;2023-10-08T01:52:06;16.30;99.90
23562;DHT22;11959;49.418;8.728;2023-10-08T01:54:42;16.30;99.90
23562;DHT22;11959;49.418;8.728;2023-10-08T01:57:09;16.20;99.90
23562;DHT22;11959;49.418;8.728;2023-10-08T01:59:36;16.20;99.90
23562;DHT22;11959;49.418;8.728;2023-10-08T02:02:04;16.30;99.90
23562;DHT22;11959;49.418;8.728;2023-10-08T02:04:32;16.20;99.90
23562;DHT22;11959;49.418;8.728;2023-10-08T02:06:59;16.20;99.90
23562;DHT22;11959;49.418;8.728;2023-10-08T02:09:25;16.20;99.90
23562;DHT22;11959;49.418;8.728;2023-10-08T02:11:52;16.10;99.90
23562;DHT22;11959;49.418;8.728;2023-10-08T02:14:22;16.10;99.90
23562;DHT22;11959;49.418;8.728;2023-10-08T02:16:51;16.10;99.90
23562;DHT22;11959;49.418;8.728;2023-10-08T02:19:22;16.00;99.90
23562;DHT22;11959;49.418;8.728;2023-10-08T02:21:53;16.00;99.90
23562;DHT22;11959;49.418;8.728;2023-10-08T02:24:20;16.00;99.90
23562;DHT22;11959;49.418;8.728;2023-10-08T02:26:51;16.00;99.90
23562;DHT22;11959;49.418;8.728;2023-10-08T02:29:17;15.90;99.90
23562;DHT22;11959;49.418;8.728;2023-10-08T02:31:42;15.80;99.90
23562;DHT22;11959;49.418;8.728;2023-10-08T02:34:09;15.90;99.90
23562;DHT22;11959;49.418;8.728;2023-10-08T02:36:36;15.90;99.90
23562;DHT22;11959;49.418;8.728;2023-10-08T02:39:03;15.90;99.90
23562;DHT22;11959;49.418;8.728;2023-10-08T02:41:51;15.90;99.90
23562;DHT22;11959;49.418;8.728;2023-10-08T02:44:18;16.10;99.90
23562;DHT22;11959;49.418;8.728;2023-10-08T02:46:47;16.10;99.90
23562;DHT22;11959;49.418;8.728;2023-10-08T02:49:14;16.10;99.90
23562;DHT22;11959;49.418;8.728;2023-10-08T02:51:46;16.20;99.90
23562;DHT22;11959;49.418;8.728;2023-10-08T02:54:11;16.10;99.90
23562;DHT22;11959;49.418;8.728;2023-10-08T02:56:48;16.00;99.90
23562;DHT22;11959;49.418;8.728;2023-10-08T02:59:18;15.90;99.90
23562;DHT22;11959;49.418;8.728;2023-10-08T03:01:47;15.80;99.90
23562;DHT22;11959;49.418;8.728;2023-10-08T03:04:15;15.70;99.90
23562;DHT22;11959;49.418;8.728;2023-10-08T03:06:48;15.70;99.90
23562;DHT22;11959;49.418;8.728;2023-10-08T03:09:21;15.70;99.90
23562;DHT22;11959;49.418;8.728;2023-10-08T03:11:51;15.70;99.90
23562;DHT22;11959;49.418;8.728;2023-10-08T03:14:19;15.70;99.90
23562;DHT22;11959;49.418;8.728;2023-10-08T03:16:52;15.60;99.90
23562;DHT22;11959;49.418;8.728;2023-10-08T03:19:19;15.60;99.90
23562;DHT22;11959;49.418;8.728;2023-10-08T03:21:49;15.50;99.90
23562;DHT22;11959;49.418;8.728;2023-10-08T03:24:21;15.40;99.90
23562;DHT22;11959;49.418;8.728;2023-10-08T03:26:59;15.30;99.90
23562;DHT22;11959;49.418;8.728;2023-10-08T03:29:35;15.20;99.90
23562;DHT22;11959;49.418;8.728;2023-10-08T03:32:11;15.20;99.90
23562;DHT22;11959;49.418;8.728;2023-10-08T03:34:50;15.10;99.90
23562;DHT22;11959;49.418;8.728;2023-10-08T03:37:21;15.00;99.90
23562;DHT22;11959;49.418;8.728;2023-10-08T03:39:55;14.90;99.90
23562;DHT22;11959;49.418;8.728;2023-10-08T03:42:29;14.80;99.90
23562;DHT22;11959;49.418;8.728;2023-10-08T03:45:06;14.80;99.90
23562;DHT22;11959;49.418;8.728;2023-10-08T03:47:41;14.80;99.90
23562;DHT22;11959;49.418;8.728;2023-10-08T03:50:12;14.80;99.90
23562;DHT22;11959;49.418;8.728;2023-10-08T03:52:43;14.70;99.90
23562;DHT22;11959;49.418;8.728;2023-10-08T03:55:09;14.60;99.90
23562;DHT22;11959;49.418;8.728;2023-10-08T03:57:41;14.60;99.90
23562;DHT22;11959;49.418;8.728;2023-10-08T04:00:09;14.60;99.90
23562;DHT22;11959;49.418;8.728;2023-10-08T04:02:39;14.60;99.90
23562;DHT22;11959;49.418;8.728;2023-10-08T04:05:20;14.50;99.90
23562;DHT22;11959;49.418;8.728;2023-10-08T04:07:47;14.50;99.90
23562;DHT22;11959;49.418;8.728;2023-10-08T04:10:45;14.40;99.90
23562;DHT22;11959;49.418;8.728;2023-10-08T04:13:31;14.40;99.90
23562;DHT22;11959;49.418;8.728;2023-10-08T04:15:56;14.40;99.90
23562;DHT22;11959;49.418;8.728;2023-10-08T04:18:23;14.30;99.90
23562;DHT22;11959;49.418;8.728;2023-10-08T04:20:49;14.30;99.90
23562;DHT22;11959;49.418;8.728;2023-10-08T04:23:30;14.30;99.90
23562;DHT22;11959;49.418;8.728;2023-10-08T04:25:56;14.20;99.90
23562;DHT22;11959;49.418;8.728;2023-10-08T04:28:22;14.20;99.90
23562;DHT22;11959;49.418;8.728;2023-10-08T04:30:48;14.10;99.90
23562;DHT22;11959;49.418;8.728;2023-10-08T04:33:16;14.10;99.90
23562;DHT22;11959;49.418;8.728;2023-10-08T04:35:43;14.00;99.90
23562;DHT22;11959;49.418;8.728;2023-10-08T04:38:20;14.00;99.90
23562;DHT22;11959;49.418;8.728;2023-10-08T04:40:54;13.90;99.90
23562;DHT22;11959;49.418;8.728;2023-10-08T04:43:23;13.90;99.90
23562;DHT22;11959;49.418;8.728;2023-10-08T04:46:03;13.80;99.90
23562;DHT22;11959;49.418;8.728;2023-10-08T04:48:30;13.80;99.90
23562;DHT22;11959;49.418;8.728;2023-10-08T04:51:02;13.70;99.90
23562;DHT22;11959;49.418;8.728;2023-10-08T04:53:30;13.80;99.90
23562;DHT22;11959;49.418;8.728;2023-10-08T04:56:01;13.70;99.90
23562;DHT22;11959;49.418;8.728;2023-10-08T04:58:33;13.70;99.90
23562;DHT22;11959;49.418;8.728;2023-10-08T05:01:02;13.60;99.90
23562;DHT22;11959;49.418;8.728;2023-10-08T05:03:55;13.60;99.90
23562;DHT22;11959;49.418;8.728;2023-10-08T05:06:34;13.50;99.90
23562;DHT22;11959;49.418;8.728;2023-10-08T05:09:03;13.50;99.90
23562;DHT22;11959;49.418;8.728;2023-10-08T05:11:45;13.50;99.90
23562;DHT22;11959;49.418;8.728;2023-10-08T05:14:23;13.50;99.90
23562;DHT22;11959;49.418;8.728;2023-10-08T05:17:03;13.40;99.90
23562;DHT22;11959;49.418;8.728;2023-10-08T05:19:38;13.40;99.90
23562;DHT22;11959;49.418;8.728;2023-10-08T05:22:09;13.40;99.90
23562;DHT22;11959;49.418;8.728;2023-10-08T05:24:54;13.40;99.90
23562;DHT22;11959;49.418;8.728;2023-10-08T05:27:40;13.30;99.90
23562;DHT22;11959;49.418;8.728;2023-10-08T05:30:16;13.30;99.90
23562;DHT22;11959;49.418;8.728;2023-10-08T05:32:45;13.30;99.90
23562;DHT22;11959;49.418;8.728;2023-10-08T05:35:29;13.30;99.90
23562;DHT22;11959;49.418;8.728;2023-10-08T05:38:10;13.30;99.90
23562;DHT22;11959;49.418;8.728;2023-10-08T05:40:45;13.30;99.90
23562;DHT22;11959;49.418;8.728;2023-10-08T05:46:01;13.30;99.90
23562;DHT22;11959;49.418;8.728;2023-10-08T05:48:45;13.30;99.90
23562;DHT22;11959;49.418;8.728;2023-10-08T05:51:16;13.30;99.90
23562;DHT22;11959;49.418;8.728;2023-10-08T05:53:59;13.40;99.90
23562;DHT22;11959;49.418;8.728;2023-10-08T05:56:32;13.30;99.90
23562;DHT22;11959;49.418;8.728;2023-10-08T05:59:17;13.30;99.90
23562;DHT22;11959;49.418;8.728;2023-10-08T06:01:52;13.30;99.90
23562;DHT22;11959;49.418;8.728;2023-10-08T06:04:31;13.30;99.90
23562;DHT22;11959;49.418;8.728;2023-10-08T06:07:08;13.30;99.90
23562;DHT22;11959;49.418;8.728;2023-10-08T06:09:48;13.30;99.90
23562;DHT22;11959;49.418;8.728;2023-10-08T06:12:28;13.30;99.90
23562;DHT22;11959;49.418;8.728;2023-10-08T06:14:58;13.30;99.90
23562;DHT22;11959;49.418;8.728;2023-10-08T06:17:33;13.30;99.90
23562;DHT22;11959;49.418;8.728;2023-10-08T06:20:17;13.30;99.90
23562;DHT22;11959;49.418;8.728;2023-10-08T06:22:52;13.30;99.90
23562;DHT22;11959;49.418;8.728;2023-10-08T06:25:20;13.40;99.90
23562;DHT22;11959;49.418;8.728;2023-10-08T06:27:52;13.40;99.90
23562;DHT22;11959;49.418;8.728;2023-10-08T06:30:24;13.40;99.90
23562;DHT22;11959;49.418;8.728;2023-10-08T06:32:54;13.40;99.90
23562;DHT22;11959;49.418;8.728;2023-10-08T06:35:21;13.50;99.90
23562;DHT22;11959;49.418;8.728;2023-10-08T06:37:51;13.50;99.90
23562;DHT22;11959;49.418;8.728;2023-10-08T06:40:20;13.50;99.90
23562;DHT22;11959;49.418;8.728;2023-10-08T06:43:01;13.60;99.90
23562;DHT22;11959;49.418;8.728;2023-10-08T06:45:47;13.60;99.90
23562;DHT22;11959;49.418;8.728;2023-10-08T06:48:20;13.60;99.90
23562;DHT22;11959;49.418;8.728;2023-10-08T06:50:48;13.60;99.90
23562;DHT22;11959;49.418;8.728;2023-10-08T06:53:14;13.70;99.90
23562;DHT22;11959;49.418;8.728;2023-10-08T06:55:41;13.70;99.90
23562;DHT22;11959;49.418;8.728;2023-10-08T06:58:07;13.70;99.90
23562;DHT22;11959;49.418;8.728;2023-10-08T07:00:37;13.70;99.90
23562;DHT22;11959;49.418;8.728;2023-10-08T07:03:12;13.80;99.90
23562;DHT22;11959;49.418;8.728;2023-10-08T07:05:51;13.90;99.90
23562;DHT22;11959;49.418;8.728;2023-10-08T07:08:24;13.90;99.90
23562;DHT22;11959;49.418;8.728;2023-10-08T07:10:51;13.90;99.90
23562;DHT22;11959;49.418;8.728;2023-10-08T07:13:19;13.90;99.90
23562;DHT22;11959;49.418;8.728;2023-10-08T07:15:50;14.00;99.90
23562;DHT22;11959;49.418;8.728;2023-10-08T07:18:16;14.00;99.90
23562;DHT22;11959;49.418;8.728;2023-10-08T07:20:51;14.10;99.90
23562;DHT22;11959;49.418;8.728;2023-10-08T07:23:23;14.10;99.90
23562;DHT22;11959;49.418;8.728;2023-10-08T07:25:55;14.20;99.90
23562;DHT22;11959;49.418;8.728;2023-10-08T07:28:37;14.20;99.90
23562;DHT22;11959;49.418;8.728;2023-10-08T07:31:04;14.20;99.90
23562;DHT22;11959;49.418;8.728;2023-10-08T07:33:30;14.30;99.90
23562;DHT22;11959;49.418;8.728;2023-10-08T07:36:02;14.30;99.90
23562;DHT22;11959;49.418;8.728;2023-10-08T07:38:38;14.30;99.90
23562;DHT22;11959;49.418;8.728;2023-10-08T07:41:05;14.30;99.90
23562;DHT22;11959;49.418;8.728;2023-10-08T07:43:31;14.40;99.90
23562;DHT22;11959;49.418;8.728;2023-10-08T07:45:58;14.50;99.90
23562;DHT22;11959;49.418;8.728;2023-10-08T07:48:25;14.60;99.90
23562;DHT22;11959;49.418;8.728;2023-10-08T07:50:56;14.70;99.90
23562;DHT22;11959;49.418;8.728;2023-10-08T07:53:23;14.80;99.90
23562;DHT22;11959;49.418;8.728;2023-10-08T07:55:50;14.80;99.90
23562;DHT22;11959;49.418;8.728;2023-10-08T07:58:17;14.80;99.90
23562;DHT22;11959;49.418;8.728;2023-10-08T08:00:44;14.90;99.90
23562;DHT22;11959;49.418;8.728;2023-10-08T08:03:20;14.90;99.90
23562;DHT22;11959;49.418;8.728;2023-10-08T08:05:46;15.00;99.90
23562;DHT22;11959;49.418;8.728;2023-10-08T08:08:13;15.10;99.90
23562;DHT22;11959;49.418;8.728;2023-10-08T08:10:44;15.20;99.90
23562;DHT22;11959;49.418;8.728;2023-10-08T08:13:11;15.30;99.90
23562;DHT22;11959;49.418;8.728;2023-10-08T08:15:38;15.30;99.90
23562;DHT22;11959;49.418;8.728;2023-10-08T08:18:08;15.40;99.90
23562;DHT22;11959;49.418;8.728;2023-10-08T08:20:44;15.50;99.90
23562;DHT22;11959;49.418;8.728;2023-10-08T08:23:09;15.70;99.90
23562;DHT22;11959;49.418;8.728;2023-10-08T08:25:39;15.80;99.90
23562;DHT22;11959;49.418;8.728;2023-10-08T08:28:12;15.80;99.90
23562;DHT22;11959;49.418;8.728;2023-10-08T08:30:47;15.90;99.90
23562;DHT22;11959;49.418;8.728;2023-10-08T08:33:14;16.00;99.90
23562;DHT22;11959;49.418;8.728;2023-10-08T08:35:48;16.10;99.90
23562;DHT22;11959;49.418;8.728;2023-10-08T08:38:22;16.10;99.90
23562;DHT22;11959;49.418;8.728;2023-10-08T08:40:49;16.20;99.90
23562;DHT22;11959;49.418;8.728;2023-10-08T08:43:16;16.20;99.90
23562;DHT22;11959;49.418;8.728;2023-10-08T08:45:42;16.30;99.90
23562;DHT22;11959;49.418;8.728;2023-10-08T08:48:09;16.40;99.90
23562;DHT22;11959;49.418;8.728;2023-10-08T08:50:37;16.40;99.90
23562;DHT22;11959;49.418;8.728;2023-10-08T08:53:04;16.50;99.90
23562;DHT22;11959;49.418;8.728;2023-10-08T08:55:31;16.60;99.90
23562;DHT22;11959;49.418;8.728;2023-10-08T08:57:59;16.60;99.90
23562;DHT22;11959;49.418;8.728;2023-10-08T09:00:28;16.70;99.90
23562;DHT22;11959;49.418;8.728;2023-10-08T09:02:55;16.80;99.90
23562;DHT22;11959;49.418;8.728;2023-10-08T09:05:21;16.80;99.90
23562;DHT22;11959;49.418;8.728;2023-10-08T09:08:03;16.80;99.90
23562;DHT22;11959;49.418;8.728;2023-10-08T09:10:30;16.90;99.90
23562;DHT22;11959;49.418;8.728;2023-10-08T09:12:58;16.90;99.90
23562;DHT22;11959;49.418;8.728;2023-10-08T09:15:25;16.90;99.90
23562;DHT22;11959;49.418;8.728;2023-10-08T09:17:55;17.00;99.90
23562;DHT22;11959;49.418;8.728;2023-10-08T09:20:22;17.00;99.90
23562;DHT22;11959;49.418;8.728;2023-10-08T09:23:07;17.00;99.90
23562;DHT22;11959;49.418;8.728;2023-10-08T09:25:34;17.00;99.90
23562;DHT22;11959;49.418;8.728;2023-10-08T09:28:00;17.10;99.90
23562;DHT22;11959;49.418;8.728;2023-10-08T09:30:29;17.10;99.90
23562;DHT22;11959;49.418;8.728;2023-10-08T09:32:55;17.10;99.90
23562;DHT22;11959;49.418;8.728;2023-10-08T09:35:22;17.10;99.90
23562;DHT22;11959;49.418;8.728;2023-10-08T09:37:50;17.20;99.90
23562;DHT22;11959;49.418;8.728;2023-10-08T09:40:17;17.30;99.90
23562;DHT22;11959;49.418;8.728;2023-10-08T09:42:46;17.40;99.90
23562;DHT22;11959;49.418;8.728;2023-10-08T09:45:13;17.40;99.90
23562;DHT22;11959;49.418;8.728;2023-10-08T09:47:43;17.40;99.90
23562;DHT22;11959;49.418;8.728;2023-10-08T09:50:13;17.50;99.90
23562;DHT22;11959;49.418;8.728;2023-10-08T09:53:00;17.50;99.90
23562;DHT22;11959;49.418;8.728;2023-10-08T09:55:27;17.50;99.90
23562;DHT22;11959;49.418;8.728;2023-10-08T09:57:53;17.70;99.90
23562;DHT22;11959;49.418;8.728;2023-10-08T10:00:21;17.70;99.90
23562;DHT22;11959;49.418;8.728;2023-10-08T10:02:59;17.80;99.90
23562;DHT22;11959;49.418;8.728;2023-10-08T10:05:32;17.90;99.90
23562;DHT22;11959;49.418;8.728;2023-10-08T10:07:58;18.00;99.90
23562;DHT22;11959;49.418;8.728;2023-10-08T10:10:28;18.10;99.90
23562;DHT22;11959;49.418;8.728;2023-10-08T10:13:00;18.10;99.90
23562;DHT22;11959;49.418;8.728;2023-10-08T10:15:26;18.20;99.90
23562;DHT22;11959;49.418;8.728;2023-10-08T10:17:52;18.30;99.90
23562;DHT22;11959;49.418;8.728;2023-10-08T10:20:17;18.30;99.90
23562;DHT22;11959;49.418;8.728;2023-10-08T10:22:45;18.30;99.90
23562;DHT22;11959;49.418;8.728;2023-10-08T10:25:11;18.40;99.90
23562;DHT22;11959;49.418;8.728;2023-10-08T10:30:24;18.50;99.90
23562;DHT22;11959;49.418;8.728;2023-10-08T10:32:53;18.50;99.90
23562;DHT22;11959;49.418;8.728;2023-10-08T10:35:19;18.60;99.90
23562;DHT22;11959;49.418;8.728;2023-10-08T10:37:48;18.60;99.90
23562;DHT22;11959;49.418;8.728;2023-10-08T10:40:24;18.70;99.90
23562;DHT22;11959;49.418;8.728;2023-10-08T10:43:06;18.70;99.90
23562;DHT22;11959;49.418;8.728;2023-10-08T10:45:41;18.70;99.90
23562;DHT22;11959;49.418;8.728;2023-10-08T10:48:12;18.70;99.90
23562;DHT22;11959;49.418;8.728;2023-10-08T10:50:41;18.70;99.90
23562;DHT22;11959;49.418;8.728;2023-10-08T10:53:25;18.80;99.90
23562;DHT22;11959;49.418;8.728;2023-10-08T10:55:53;19.00;99.90
23562;DHT22;11959;49.418;8.728;2023-10-08T10:58:37;19.10;99.90
23562;DHT22;11959;49.418;8.728;2023-10-08T11:01:05;19.30;99.90
23562;DHT22;11959;49.418;8.728;2023-10-08T11:03:52;19.30;99.90
23562;DHT22;11959;49.418;8.728;2023-10-08T11:06:19;19.30;99.90
23562;DHT22;11959;49.418;8.728;2023-10-08T11:08:50;19.30;99.90
23562;DHT22;11959;49.418;8.728;2023-10-08T11:11:28;19.30;99.90
23562;DHT22;11959;49.418;8.728;2023-10-08T11:13:59;19.30;99.90
23562;DHT22;11959;49.418;8.728;2023-10-08T11:16:26;19.30;99.90
23562;DHT22;11959;49.418;8.728;2023-10-08T11:18:53;19.40;99.90
23562;DHT22;11959;49.418;8.728;2023-10-08T11:21:23;19.40;99.90
23562;DHT22;11959;49.418;8.728;2023-10-08T11:23:51;19.40;99.90
23562;DHT22;11959;49.418;8.728;2023-10-08T11:26:22;19.50;99.90
23562;DHT22;11959;49.418;8.728;2023-10-08T11:28:58;19.60;99.90
23562;DHT22;11959;49.418;8.728;2023-10-08T11:31:27;19.60;99.90
23562;DHT22;11959;49.418;8.728;2023-10-08T11:33:59;19.70;99.90
23562;DHT22;11959;49.418;8.728;2023-10-08T11:36:27;19.60;99.90
23562;DHT22;11959;49.418;8.728;2023-10-08T11:38:57;19.60;99.90
23562;DHT22;11959;49.418;8.728;2023-10-08T11:41:32;19.60;99.90
23562;DHT22;11959;49.418;8.728;2023-10-08T11:44:15;19.60;99.90
23562;DHT22;11959;49.418;8.728;2023-10-08T11:46:46;19.50;99.90
23562;DHT22;11959;49.418;8.728;2023-10-08T11:49:17;19.40;99.90
23562;DHT22;11959;49.418;8.728;2023-10-08T11:51:44;19.40;99.90
23562;DHT22;11959;49.418;8.728;2023-10-08T11:54:14;19.40;99.90
23562;DHT22;11959;49.418;8.728;2023-10-08T11:56:40;19.30;99.90
23562;DHT22;11959;49.418;8.728;2023-10-08T11:59:06;19.30;99.90
23562;DHT22;11959;49.418;8.728;2023-10-08T12:01:37;19.30;99.90
23562;DHT22;11959;49.418;8.728;2023-10-08T12:04:08;19.20;99.90
23562;DHT22;11959;49.418;8.728;2023-10-08T12:06:41;19.20;99.90
23562;DHT22;11959;49.418;8.728;2023-10-08T12:09:18;19.20;99.90
23562;DHT22;11959;49.418;8.728;2023-10-08T12:11:47;19.20;99.90
23562;DHT22;11959;49.418;8.728;2023-10-08T12:14:13;19.20;99.90
23562;DHT22;11959;49.418;8.728;2023-10-08T12:16:40;19.20;99.90
23562;DHT22;11959;49.418;8.728;2023-10-08T12:19:07;19.20;99.90
23562;DHT22;11959;49.418;8.728;2023-10-08T12:21:43;19.30;99.90
23562;DHT22;11959;49.418;8.728;2023-10-08T12:24:11;19.30;99.90
23562;DHT22;11959;49.418;8.728;2023-10-08T12:26:38;19.30;99.90
23562;DHT22;11959;49.418;8.728;2023-10-08T12:29:14;19.40;99.90
23562;DHT22;11959;49.418;8.728;2023-10-08T12:31:40;19.40;99.90
23562;DHT22;11959;49.418;8.728;2023-10-08T12:34:06;19.40;99.90
23562;DHT22;11959;49.418;8.728;2023-10-08T12:36:40;19.40;99.90
23562;DHT22;11959;49.418;8.728;2023-10-08T12:39:07;19.40;99.90
23562;DHT22;11959;49.418;8.728;2023-10-08T12:41:41;19.40;99.90
23562;DHT22;11959;49.418;8.728;2023-10-08T12:44:09;19.40;99.90
23562;DHT22;11959;49.418;8.728;2023-10-08T12:46:35;19.40;99.90
23562;DHT22;11959;49.418;8.728;2023-10-08T12:49:02;19.50;99.90
23562;DHT22;11959;49.418;8.728;2023-10-08T12:51:28;19.50;99.90
23562;DHT22;11959;49.418;8.728;2023-10-08T12:53:59;19.50;99.90
23562;DHT22;11959;49.418;8.728;2023-10-08T12:56:30;19.50;99.90
23562;DHT22;11959;49.418;8.728;2023-10-08T12:59:04;19.50;99.90
23562;DHT22;11959;49.418;8.728;2023-10-08T13:01:31;19.50;99.90
23562;DHT22;11959;49.418;8.728;2023-10-08T13:03:57;19.60;99.90
23562;DHT22;11959;49.418;8.728;2023-10-08T13:06:27;19.60;99.90
23562;DHT22;11959;49.418;8.728;2023-10-08T13:08:57;19.60;99.90
23562;DHT22;11959;49.418;8.728;2023-10-08T13:11:25;19.70;99.90
23562;DHT22;11959;49.418;8.728;2023-10-08T13:13:54;19.70;99.90
23562;DHT22;11959;49.418;8.728;2023-10-08T13:16:27;19.70;99.90
23562;DHT22;11959;49.418;8.728;2023-10-08T13:19:03;19.80;99.90
23562;DHT22;11959;49.418;8.728;2023-10-08T13:21:29;19.80;99.90
23562;DHT22;11959;49.418;8.728;2023-10-08T13:23:55;19.80;99.90
23562;DHT22;11959;49.418;8.728;2023-10-08T13:26:29;19.80;99.90
23562;DHT22;11959;49.418;8.728;2023-10-08T13:29:00;19.90;99.90
23562;DHT22;11959;49.418;8.728;2023-10-08T13:31:27;19.90;99.90
23562;DHT22;11959;49.418;8.728;2023-10-08T13:33:53;20.00;99.90
23562;DHT22;11959;49.418;8.728;2023-10-08T13:36:22;19.90;99.90
23562;DHT22;11959;49.418;8.728;2023-10-08T13:38:49;20.00;99.90
23562;DHT22;11959;49.418;8.728;2023-10-08T13:41:14;20.00;99.90
23562;DHT22;11959;49.418;8.728;2023-10-08T13:43:50;20.00;99.90
23562;DHT22;11959;49.418;8.728;2023-10-08T13:46:27;20.00;99.90
23562;DHT22;11959;49.418;8.728;2023-10-08T13:48:53;20.00;99.90
23562;DHT22;11959;49.418;8.728;2023-10-08T13:51:21;19.90;99.90
23562;DHT22;11959;49.418;8.728;2023-10-08T13:53:57;19.90;99.90
23562;DHT22;11959;49.418;8.728;2023-10-08T13:56:28;19.90;99.90
23562;DHT22;11959;49.418;8.728;2023-10-08T13:58:57;19.80;99.90
23562;DHT22;11959;49.418;8.728;2023-10-08T14:01:49;19.80;99.90
23562;DHT22;11959;49.418;8.728;2023-10-08T14:04:17;19.80;99.90
23562;DHT22;11959;49.418;8.728;2023-10-08T14:06:45;19.80;99.90
23562;DHT22;11959;49.418;8.728;2023-10-08T14:09:18;19.80;99.90
23562;DHT22;11959;49.418;8.728;2023-10-08T14:11:50;19.80;99.90
23562;DHT22;11959;49.418;8.728;2023-10-08T14:14:18;19.70;99.90
23562;DHT22;11959;49.418;8.728;2023-10-08T14:16:45;19.70;99.90
23562;DHT22;11959;49.418;8.728;2023-10-08T14:19:17;19.70;99.90
23562;DHT22;11959;49.418;8.728;2023-10-08T14:21:43;19.70;99.90
23562;DHT22;11959;49.418;8.728;2023-10-08T14:24:18;19.60;99.90
23562;DHT22;11959;49.418;8.728;2023-10-08T14:26:44;19.60;99.90
23562;DHT22;11959;49.418;8.728;2023-10-08T14:29:17;19.60;99.90
23562;DHT22;11959;49.418;8.728;2023-10-08T14:31:42;19.50;99.90
23562;DHT22;11959;49.418;8.728;2023-10-08T14:34:12;19.50;99.90
23562;DHT22;11959;49.418;8.728;2023-10-08T14:36:47;19.40;99.90
23562;DHT22;11959;49.418;8.728;2023-10-08T14:39:42;19.40;99.90
23562;DHT22;11959;49.418;8.728;2023-10-08T14:42:26;19.40;99.90
23562;DHT22;11959;49.418;8.728;2023-10-08T14:45:10;19.40;99.90
23562;DHT22;11959;49.418;8.728;2023-10-08T14:47:39;19.40;99.90
23562;DHT22;11959;49.418;8.728;2023-10-08T14:50:06;19.40;99.90
23562;DHT22;11959;49.418;8.728;2023-10-08T14:52:45;19.40;99.90
23562;DHT22;11959;49.418;8.728;2023-10-08T14:55:12;19.40;99.90
23562;DHT22;11959;49.418;8.728;2023-10-08T14:57:41;19.40;99.90
23562;DHT22;11959;49.418;8.728;2023-10-08T15:00:08;19.40;99.90
23562;DHT22;11959;49.418;8.728;2023-10-08T15:02:34;19.40;99.90
23562;DHT22;11959;49.418;8.728;2023-10-08T15:05:00;19.40;99.90
23562;DHT22;11959;49.418;8.728;2023-10-08T15:07:29;19.40;99.90
23562;DHT22;11959;49.418;8.728;2023-10-08T15:09:54;19.40;99.90
23562;DHT22;11959;49.418;8.728;2023-10-08T15:12:24;19.30;99.90
23562;DHT22;11959;49.418;8.728;2023-10-08T15:14:51;19.30;99.90
23562;DHT22;11959;49.418;8.728;2023-10-08T15:17:17;19.30;99.90
23562;DHT22;11959;49.418;8.728;2023-10-08T15:19:43;19.40;99.90
23562;DHT22;11959;49.418;8.728;2023-10-08T15:22:08;19.30;99.90
23562;DHT22;11959;49.418;8.728;2023-10-08T15:24:34;19.30;99.90
23562;DHT22;11959;49.418;8.728;2023-10-08T15:27:02;19.30;99.90
23562;DHT22;11959;49.418;8.728;2023-10-08T15:29:29;19.20;99.90
23562;DHT22;11959;49.418;8.728;2023-10-08T15:31:56;19.20;99.90
23562;DHT22;11959;49.418;8.728;2023-10-08T15:34:23;19.20;99.90
23562;DHT22;11959;49.418;8.728;2023-10-08T15:36:54;19.10;99.90
23562;DHT22;11959;49.418;8.728;2023-10-08T15:39:20;19.10;99.90
23562;DHT22;11959;49.418;8.728;2023-10-08T15:41:50;19.00;99.90
23562;DHT22;11959;49.418;8.728;2023-10-08T15:44:19;19.00;99.90
23562;DHT22;11959;49.418;8.728;2023-10-08T15:46:48;18.90;99.90
23562;DHT22;11959;49.418;8.728;2023-10-08T15:49:15;18.90;99.90
23562;DHT22;11959;49.418;8.728;2023-10-08T15:51:40;18.80;99.90
23562;DHT22;11959;49.418;8.728;2023-10-08T15:54:06;18.80;99.90
23562;DHT22;11959;49.418;8.728;2023-10-08T15:56:32;18.80;99.90
23562;DHT22;11959;49.418;8.728;2023-10-08T15:58:58;18.70;99.90